sensor_id;sensor_type;location;lat;lon;timestamp;pressure;altitude;pressure_sealevel;temperature;humidity
24962;BME280;12992;50.884;13.668;2023-04-10T00:00:48;98042.28;;;4.43;100.00
24962;BME280;12992;50.884;13.668;2023-04-10T00:03:17;98036.06;;;4.43;100.00
24962;BME280;12992;50.884;13.668;2023-04-10T00:05:43;98020.41;;;4.32;100.00
24962;BME280;12992;50.884;13.668;2023-04-10T00:08:08;98016.63;;;4.19;100.00
24962;BME280;12992;50.884;13.668;2023-04-10T00:10:34;98015.13;;;4.10;100.00
24962;BME280;12992;50.884;13.668;2023-04-10T00:12:59;97998.47;;;4.00;100.00
24962;BME280;12992;50.884;13.668;2023-04-10T00:15:25;98006.72;;;3.92;100.00
24962;BME280;12992;50.884;13.668;2023-04-10T00:17:50;98024.13;;;3.96;100.00
24962;BME280;12992;50.884;13.668;2023-04-10T00:20:22;98023.75;;;3.99;100.00
24962;BME280;12992;50.884;13.668;2023-04-10T00:22:48;98021.44;;;3.96;100.00
24962;BME280;12992;50.884;13.668;2023-04-10T00:25:13;98018.72;;;3.89;100.00
24962;BME280;12992;50.884;13.668;2023-04-10T00:27:38;98017.88;;;3.89;100.00
24962;BME280;12992;50.884;13.668;2023-04-10T00:30:04;98022.88;;;3.92;100.00
24962;BME280;12992;50.884;13.668;2023-04-10T00:32:30;98010.94;;;3.80;100.00
24962;BME280;12992;50.884;13.668;2023-04-10T00:34:55;97987.16;;;3.55;100.00
24962;BME280;12992;50.884;13.668;2023-04-10T00:37:21;97988.63;;;3.58;100.00
24962;BME280;12992;50.884;13.668;2023-04-10T00:39:46;97992.69;;;3.47;100.00
24962;BME280;12992;50.884;13.668;2023-04-10T00:42:11;97986.97;;;3.35;100.00
24962;BME280;12992;50.884;13.668;2023-04-10T00:44:37;98014.22;;;3.47;100.00
24962;BME280;12992;50.884;13.668;2023-04-10T00:47:03;98040.50;;;3.66;100.00
24962;BME280;12992;50.884;13.668;2023-04-10T00:49:29;98050.59;;;3.86;100.00
24962;BME280;12992;50.884;13.668;2023-04-10T00:51:55;98046.03;;;3.86;100.00
24962;BME280;12992;50.884;13.668;2023-04-10T00:54:21;98017.50;;;3.70;100.00
24962;BME280;12992;50.884;13.668;2023-04-10T00:56:48;98024.41;;;3.73;100.00
24962;BME280;12992;50.884;13.668;2023-04-10T00:59:14;98043.97;;;3.88;100.00
24962;BME280;12992;50.884;13.668;2023-04-10T01:01:39;98037.75;;;3.88;100.00
24962;BME280;12992;50.884;13.668;2023-04-10T01:04:05;98029.81;;;3.80;100.00
24962;BME280;12992;50.884;13.668;2023-04-10T01:06:52;98040.22;;;3.83;100.00
24962;BME280;12992;50.884;13.668;2023-04-10T01:09:51;98004.03;;;3.70;100.00
24962;BME280;12992;50.884;13.668;2023-04-10T01:15:15;98015.97;;;3.55;100.00
24962;BME280;12992;50.884;13.668;2023-04-10T01:20:25;98035.03;;;3.60;100.00
24962;BME280;12992;50.884;13.668;2023-04-10T01:28:26;98054.53;;;3.62;100.00
24962;BME280;12992;50.884;13.668;2023-04-10T01:30:57;98062.75;;;3.75;100.00
24962;BME280;12992;50.884;13.668;2023-04-10T01:33:29;98071.72;;;3.82;100.00
24962;BME280;12992;50.884;13.668;2023-04-10T01:35:59;98068.00;;;3.83;100.00
24962;BME280;12992;50.884;13.668;2023-04-10T01:38:27;98066.13;;;3.84;100.00
24962;BME280;12992;50.884;13.668;2023-04-10T01:40:56;98085.91;;;3.97;100.00
24962;BME280;12992;50.884;13.668;2023-04-10T01:43:28;98088.25;;;4.01;100.00
24962;BME280;12992;50.884;13.668;2023-04-10T01:45:55;98088.03;;;4.02;100.00
24962;BME280;12992;50.884;13.668;2023-04-10T01:48:21;98086.19;;;4.03;100.00
24962;BME280;12992;50.884;13.668;2023-04-10T01:50:47;98095.38;;;4.15;100.00
24962;BME280;12992;50.884;13.668;2023-04-10T01:53:14;98091.91;;;4.21;100.00
24962;BME280;12992;50.884;13.668;2023-04-10T01:55:41;98046.50;;;3.90;100.00
24962;BME280;12992;50.884;13.668;2023-04-10T01:58:09;98044.56;;;3.84;100.00
24962;BME280;12992;50.884;13.668;2023-04-10T02:00:39;98024.34;;;3.66;100.00
24962;BME280;12992;50.884;13.668;2023-04-10T02:03:06;98025.50;;;3.57;100.00
24962;BME280;12992;50.884;13.668;2023-04-10T02:05:51;98032.94;;;3.55;100.00
24962;BME280;12992;50.884;13.668;2023-04-10T02:08:30;98061.22;;;3.66;100.00
24962;BME280;12992;50.884;13.668;2023-04-10T02:11:25;98030.00;;;3.50;100.00
24962;BME280;12992;50.884;13.668;2023-04-10T02:13:54;98057.41;;;3.60;100.00
24962;BME280;12992;50.884;13.668;2023-04-10T02:16:22;98058.44;;;3.59;100.00
24962;BME280;12992;50.884;13.668;2023-04-10T02:18:49;98055.97;;;3.58;100.00
24962;BME280;12992;50.884;13.668;2023-04-10T02:21:15;98057.81;;;3.57;100.00
24962;BME280;12992;50.884;13.668;2023-04-10T02:23:41;98060.91;;;3.54;100.00
24962;BME280;12992;50.884;13.668;2023-04-10T02:26:07;98044.69;;;3.48;100.00
24962;BME280;12992;50.884;13.668;2023-04-10T02:28:33;98046.53;;;3.47;100.00
24962;BME280;12992;50.884;13.668;2023-04-10T02:30:58;98039.72;;;3.51;100.00
24962;BME280;12992;50.884;13.668;2023-04-10T02:33:23;98044.09;;;3.52;100.00
24962;BME280;12992;50.884;13.668;2023-04-10T02:35:49;98037.44;;;3.48;100.00
24962;BME280;12992;50.884;13.668;2023-04-10T02:38:14;98034.03;;;3.39;100.00
24962;BME280;12992;50.884;13.668;2023-04-10T02:40:40;98049.59;;;3.44;100.00
24962;BME280;12992;50.884;13.668;2023-04-10T02:43:12;98046.28;;;3.42;100.00
24962;BME280;12992;50.884;13.668;2023-04-10T02:45:39;98070.66;;;3.55;100.00
24962;BME280;12992;50.884;13.668;2023-04-10T02:48:05;98045.25;;;3.43;100.00
24962;BME280;12992;50.884;13.668;2023-04-10T02:50:31;98061.03;;;3.46;100.00
24962;BME280;12992;50.884;13.668;2023-04-10T02:52:57;98083.59;;;3.66;100.00
24962;BME280;12992;50.884;13.668;2023-04-10T02:55:23;98083.69;;;3.80;100.00
24962;BME280;12992;50.884;13.668;2023-04-10T02:57:48;98075.56;;;3.73;100.00
24962;BME280;12992;50.884;13.668;2023-04-10T03:00:14;98061.22;;;3.66;100.00
24962;BME280;12992;50.884;13.668;2023-04-10T03:03:05;98041.59;;;3.51;100.00
24962;BME280;12992;50.884;13.668;2023-04-10T03:05:39;98022.13;;;3.27;100.00
24962;BME280;12992;50.884;13.668;2023-04-10T03:08:05;98025.56;;;3.21;100.00
24962;BME280;12992;50.884;13.668;2023-04-10T03:10:30;98046.03;;;3.37;100.00
24962;BME280;12992;50.884;13.668;2023-04-10T03:12:55;98082.63;;;3.53;100.00
24962;BME280;12992;50.884;13.668;2023-04-10T03:15:21;98108.94;;;3.72;100.00
24962;BME280;12992;50.884;13.668;2023-04-10T03:17:46;98104.38;;;3.73;100.00
24962;BME280;12992;50.884;13.668;2023-04-10T03:20:12;98109.03;;;3.85;100.00
24962;BME280;12992;50.884;13.668;2023-04-10T03:22:37;98074.25;;;3.62;100.00
24962;BME280;12992;50.884;13.668;2023-04-10T03:25:04;98061.75;;;3.55;100.00
24962;BME280;12992;50.884;13.668;2023-04-10T03:27:30;98080.19;;;3.58;100.00
24962;BME280;12992;50.884;13.668;2023-04-10T03:29:58;98094.81;;;3.70;100.00
24962;BME280;12992;50.884;13.668;2023-04-10T03:32:25;98080.28;;;3.64;100.00
24962;BME280;12992;50.884;13.668;2023-04-10T03:34:52;98104.38;;;3.73;100.00
24962;BME280;12992;50.884;13.668;2023-04-10T03:37:18;98098.19;;;3.79;100.00
24962;BME280;12992;50.884;13.668;2023-04-10T03:39:44;98082.38;;;3.69;100.00
24962;BME280;12992;50.884;13.668;2023-04-10T03:42:12;98071.72;;;3.61;100.00
24962;BME280;12992;50.884;13.668;2023-04-10T03:44:38;98067.28;;;3.53;100.00
24962;BME280;12992;50.884;13.668;2023-04-10T03:47:04;98064.50;;;3.40;100.00
24962;BME280;12992;50.884;13.668;2023-04-10T03:49:29;98078.22;;;3.45;100.00
24962;BME280;12992;50.884;13.668;2023-04-10T03:52:02;98064.69;;;3.38;100.00
24962;BME280;12992;50.884;13.668;2023-04-10T03:54:27;98079.19;;;3.37;100.00
24962;BME280;12992;50.884;13.668;2023-04-10T03:56:52;98091.69;;;3.45;100.00
24962;BME280;12992;50.884;13.668;2023-04-10T03:59:20;98102.69;;;3.50;100.00
24962;BME280;12992;50.884;13.668;2023-04-10T04:01:45;98101.66;;;3.51;100.00
24962;BME280;12992;50.884;13.668;2023-04-10T04:04:11;98110.38;;;3.53;100.00
24962;BME280;12992;50.884;13.668;2023-04-10T04:06:54;98093.00;;;3.34;100.00
24962;BME280;12992;50.884;13.668;2023-04-10T04:09:23;98108.19;;;3.42;100.00
24962;BME280;12992;50.884;13.668;2023-04-10T04:11:59;98125.72;;;3.53;100.00
24962;BME280;12992;50.884;13.668;2023-04-10T04:14:55;98161.19;;;3.78;100.00
24962;BME280;12992;50.884;13.668;2023-04-10T04:17:33;98148.81;;;3.83;100.00
24962;BME280;12992;50.884;13.668;2023-04-10T04:20:05;98153.88;;;3.93;100.00
24962;BME280;12992;50.884;13.668;2023-04-10T04:22:48;98135.16;;;3.85;100.00
24962;BME280;12992;50.884;13.668;2023-04-10T04:25:29;98130.53;;;3.79;100.00
24962;BME280;12992;50.884;13.668;2023-04-10T04:28:18;98136.59;;;3.81;100.00
24962;BME280;12992;50.884;13.668;2023-04-10T04:30:58;98172.22;;;4.04;100.00
24962;BME280;12992;50.884;13.668;2023-04-10T04:33:37;98170.69;;;4.16;100.00
24962;BME280;12992;50.884;13.668;2023-04-10T04:36:21;98182.19;;;4.25;100.00
24962;BME280;12992;50.884;13.668;2023-04-10T04:39:13;98176.31;;;4.21;100.00
24962;BME280;12992;50.884;13.668;2023-04-10T04:41:57;98185.03;;;4.23;100.00
24962;BME280;12992;50.884;13.668;2023-04-10T04:44:40;98175.28;;;4.22;100.00
24962;BME280;12992;50.884;13.668;2023-04-10T04:47:15;98184.69;;;4.26;100.00
24962;BME280;12992;50.884;13.668;2023-04-10T04:49:50;98178.44;;;4.26;100.00
24962;BME280;12992;50.884;13.668;2023-04-10T04:52:25;98168.22;;;4.21;100.00
24962;BME280;12992;50.884;13.668;2023-04-10T04:55:06;98175.97;;;4.24;100.00
24962;BME280;12992;50.884;13.668;2023-04-10T04:57:54;98174.91;;;4.25;100.00
24962;BME280;12992;50.884;13.668;2023-04-10T05:00:41;98189.13;;;4.41;100.00
24962;BME280;12992;50.884;13.668;2023-04-10T05:03:18;98186.63;;;4.39;100.00
24962;BME280;12992;50.884;13.668;2023-04-10T05:06:01;98184.13;;;4.38;100.00
24962;BME280;12992;50.884;13.668;2023-04-10T05:08:45;98194.00;;;4.52;100.00
24962;BME280;12992;50.884;13.668;2023-04-10T05:11:29;98198.88;;;4.63;100.00
24962;BME280;12992;50.884;13.668;2023-04-10T05:14:13;98199.13;;;4.68;100.00
24962;BME280;12992;50.884;13.668;2023-04-10T05:17:05;98186.41;;;4.62;100.00
24962;BME280;12992;50.884;13.668;2023-04-10T05:19:42;98167.66;;;4.54;100.00
24962;BME280;12992;50.884;13.668;2023-04-10T05:22:27;98178.06;;;4.57;100.00
24962;BME280;12992;50.884;13.668;2023-04-10T05:25:16;98168.44;;;4.48;100.00
24962;BME280;12992;50.884;13.668;2023-04-10T05:28:07;98159.66;;;4.39;100.00
24962;BME280;12992;50.884;13.668;2023-04-10T05:30:52;98190.09;;;4.54;100.00
24962;BME280;12992;50.884;13.668;2023-04-10T05:33:41;98205.53;;;4.67;100.00
24962;BME280;12992;50.884;13.668;2023-04-10T05:36:12;98229.00;;;4.95;100.00
24962;BME280;12992;50.884;13.668;2023-04-10T05:38:52;98228.81;;;5.03;100.00
24962;BME280;12992;50.884;13.668;2023-04-10T05:41:34;98225.31;;;5.09;100.00
24962;BME280;12992;50.884;13.668;2023-04-10T05:44:24;98226.59;;;5.13;100.00
24962;BME280;12992;50.884;13.668;2023-04-10T05:47:00;98219.13;;;5.15;100.00
24962;BME280;12992;50.884;13.668;2023-04-10T05:49:37;98213.72;;;5.15;100.00
24962;BME280;12992;50.884;13.668;2023-04-10T05:52:14;98226.66;;;5.26;100.00
24962;BME280;12992;50.884;13.668;2023-04-10T05:54:59;98212.13;;;5.27;100.00
24962;BME280;12992;50.884;13.668;2023-04-10T05:57:31;98213.78;;;5.28;100.00
24962;BME280;12992;50.884;13.668;2023-04-10T06:00:19;98195.47;;;5.17;100.00
24962;BME280;12992;50.884;13.668;2023-04-10T06:03:03;98221.50;;;5.31;100.00
24962;BME280;12992;50.884;13.668;2023-04-10T06:05:31;98234.84;;;5.39;100.00
24962;BME280;12992;50.884;13.668;2023-04-10T06:08:01;98240.13;;;5.61;100.00
24962;BME280;12992;50.884;13.668;2023-04-10T06:10:29;98243.72;;;5.81;100.00
24962;BME280;12992;50.884;13.668;2023-04-10T06:12:55;98236.09;;;5.91;100.00
24962;BME280;12992;50.884;13.668;2023-04-10T06:15:21;98247.19;;;6.03;100.00
24962;BME280;12992;50.884;13.668;2023-04-10T06:17:47;98245.31;;;6.10;100.00
24962;BME280;12992;50.884;13.668;2023-04-10T06:20:13;98252.44;;;6.31;100.00
24962;BME280;12992;50.884;13.668;2023-04-10T06:22:38;98259.53;;;6.45;100.00
24962;BME280;12992;50.884;13.668;2023-04-10T06:25:04;98262.25;;;6.65;100.00
24962;BME280;12992;50.884;13.668;2023-04-10T06:27:30;98237.06;;;6.65;100.00
24962;BME280;12992;50.884;13.668;2023-04-10T06:29:56;98257.22;;;6.89;100.00
24962;BME280;12992;50.884;13.668;2023-04-10T06:32:22;98249.53;;;6.92;100.00
24962;BME280;12992;50.884;13.668;2023-04-10T06:34:48;98259.72;;;7.17;100.00
24962;BME280;12992;50.884;13.668;2023-04-10T06:37:14;98246.19;;;7.17;100.00
24962;BME280;12992;50.884;13.668;2023-04-10T06:39:39;98231.97;;;7.21;100.00
24962;BME280;12992;50.884;13.668;2023-04-10T06:42:05;98235.69;;;7.40;100.00
24962;BME280;12992;50.884;13.668;2023-04-10T06:44:42;98253.97;;;7.58;100.00
24962;BME280;12992;50.884;13.668;2023-04-10T06:47:07;98237.50;;;7.59;100.00
24962;BME280;12992;50.884;13.668;2023-04-10T06:49:34;98258.06;;;7.87;100.00
24962;BME280;12992;50.884;13.668;2023-04-10T06:51:59;98288.28;;;8.29;100.00
24962;BME280;12992;50.884;13.668;2023-04-10T06:54:24;98284.28;;;8.76;100.00
24962;BME280;12992;50.884;13.668;2023-04-10T06:56:50;98286.97;;;9.01;100.00
24962;BME280;12992;50.884;13.668;2023-04-10T06:59:15;98282.91;;;9.35;100.00
24962;BME280;12992;50.884;13.668;2023-04-10T07:01:41;98253.16;;;9.40;100.00
24962;BME280;12992;50.884;13.668;2023-04-10T07:04:06;98251.34;;;9.52;100.00
24962;BME280;12992;50.884;13.668;2023-04-10T07:06:32;98246.00;;;9.64;100.00
24962;BME280;12992;50.884;13.668;2023-04-10T07:08:57;98207.94;;;9.46;100.00
24962;BME280;12992;50.884;13.668;2023-04-10T07:11:22;98199.16;;;9.44;100.00
24962;BME280;12992;50.884;13.668;2023-04-10T07:13:48;98208.84;;;9.40;100.00
24962;BME280;12992;50.884;13.668;2023-04-10T07:16:17;98230.28;;;9.66;100.00
24962;BME280;12992;50.884;13.668;2023-04-10T07:18:42;98229.44;;;9.84;100.00
24962;BME280;12992;50.884;13.668;2023-04-10T07:21:10;98238.91;;;10.11;96.63
24962;BME280;12992;50.884;13.668;2023-04-10T07:23:39;98214.75;;;10.33;95.59
24962;BME280;12992;50.884;13.668;2023-04-10T07:26:05;98235.75;;;10.44;100.00
24962;BME280;12992;50.884;13.668;2023-04-10T07:28:30;98250.03;;;10.70;100.00
24962;BME280;12992;50.884;13.668;2023-04-10T07:30:57;98215.06;;;10.67;98.30
24962;BME280;12992;50.884;13.668;2023-04-10T07:33:22;98239.03;;;11.00;97.90
24962;BME280;12992;50.884;13.668;2023-04-10T07:35:48;98218.66;;;11.02;98.49
24962;BME280;12992;50.884;13.668;2023-04-10T07:38:13;98212.75;;;11.05;97.82
24962;BME280;12992;50.884;13.668;2023-04-10T07:40:38;98228.25;;;11.28;97.83
24962;BME280;12992;50.884;13.668;2023-04-10T07:43:04;98233.81;;;11.45;100.00
24962;BME280;12992;50.884;13.668;2023-04-10T07:45:29;98221.47;;;11.54;97.63
24962;BME280;12992;50.884;13.668;2023-04-10T07:47:54;98212.09;;;11.62;96.42
24962;BME280;12992;50.884;13.668;2023-04-10T07:50:20;98208.16;;;11.81;93.79
24962;BME280;12992;50.884;13.668;2023-04-10T07:52:45;98165.94;;;11.60;88.60
24962;BME280;12992;50.884;13.668;2023-04-10T07:55:10;98160.00;;;11.63;86.39
24962;BME280;12992;50.884;13.668;2023-04-10T07:57:35;98172.66;;;11.81;83.99
24962;BME280;12992;50.884;13.668;2023-04-10T08:00:01;98127.25;;;11.63;82.61
24962;BME280;12992;50.884;13.668;2023-04-10T08:02:37;98131.25;;;11.73;79.78
24962;BME280;12992;50.884;13.668;2023-04-10T08:05:05;98152.91;;;11.91;80.39
24962;BME280;12992;50.884;13.668;2023-04-10T08:07:30;98134.63;;;11.91;76.56
24962;BME280;12992;50.884;13.668;2023-04-10T08:09:55;98119.91;;;11.93;76.85
24962;BME280;12992;50.884;13.668;2023-04-10T08:12:21;98149.59;;;12.17;77.96
24962;BME280;12992;50.884;13.668;2023-04-10T08:14:46;98176.22;;;12.56;74.03
24962;BME280;12992;50.884;13.668;2023-04-10T08:17:11;98169.84;;;12.84;73.38
24962;BME280;12992;50.884;13.668;2023-04-10T08:19:42;98158.09;;;12.83;74.29
24962;BME280;12992;50.884;13.668;2023-04-10T08:22:08;98162.13;;;12.97;75.65
24962;BME280;12992;50.884;13.668;2023-04-10T08:24:33;98098.84;;;12.72;73.75
24962;BME280;12992;50.884;13.668;2023-04-10T08:26:59;98142.28;;;13.07;74.14
24962;BME280;12992;50.884;13.668;2023-04-10T08:29:25;98075.09;;;12.72;72.88
24962;BME280;12992;50.884;13.668;2023-04-10T08:31:50;98064.38;;;12.49;73.70
24962;BME280;12992;50.884;13.668;2023-04-10T08:34:16;98119.97;;;12.76;74.17
24962;BME280;12992;50.884;13.668;2023-04-10T08:36:41;98118.63;;;12.96;73.52
24962;BME280;12992;50.884;13.668;2023-04-10T08:39:06;98176.25;;;13.45;73.23
24962;BME280;12992;50.884;13.668;2023-04-10T08:41:31;98189.44;;;14.18;70.13
24962;BME280;12992;50.884;13.668;2023-04-10T08:43:57;98211.22;;;14.84;71.70
24962;BME280;12992;50.884;13.668;2023-04-10T08:46:23;98216.47;;;15.70;66.72
24962;BME280;12992;50.884;13.668;2023-04-10T08:49:03;98123.72;;;15.35;64.36
24962;BME280;12992;50.884;13.668;2023-04-10T08:51:45;98157.97;;;15.65;66.25
24962;BME280;12992;50.884;13.668;2023-04-10T08:54:18;98223.69;;;16.85;63.77
24962;BME280;12992;50.884;13.668;2023-04-10T08:56:49;98211.03;;;17.19;61.71
24962;BME280;12992;50.884;13.668;2023-04-10T08:59:15;98152.16;;;17.05;60.55
24962;BME280;12992;50.884;13.668;2023-04-10T09:01:41;98253.59;;;18.58;59.94
24962;BME280;12992;50.884;13.668;2023-04-10T09:04:06;98118.63;;;18.61;57.08
24962;BME280;12992;50.884;13.668;2023-04-10T09:06:31;98179.69;;;19.23;56.40
24962;BME280;12992;50.884;13.668;2023-04-10T09:08:57;98127.56;;;18.87;57.65
24962;BME280;12992;50.884;13.668;2023-04-10T09:14:22;98097.09;;;18.98;56.17
24962;BME280;12992;50.884;13.668;2023-04-10T09:16:48;98082.56;;;18.87;56.04
24962;BME280;12992;50.884;13.668;2023-04-10T09:19:28;98160.97;;;20.34;52.69
24962;BME280;12992;50.884;13.668;2023-04-10T09:21:54;98175.84;;;20.95;50.64
24962;BME280;12992;50.884;13.668;2023-04-10T09:24:19;98172.28;;;21.08;53.02
24962;BME280;12992;50.884;13.668;2023-04-10T09:26:45;98193.22;;;22.43;50.01
24962;BME280;12992;50.884;13.668;2023-04-10T09:29:10;98185.38;;;23.71;46.40
24962;BME280;12992;50.884;13.668;2023-04-10T09:31:37;98101.84;;;23.54;46.59
24962;BME280;12992;50.884;13.668;2023-04-10T09:34:29;98020.25;;;21.20;49.70
24962;BME280;12992;50.884;13.668;2023-04-10T09:36:59;97962.13;;;20.47;50.55
24962;BME280;12992;50.884;13.668;2023-04-10T09:39:33;97953.84;;;20.47;49.62
24962;BME280;12992;50.884;13.668;2023-04-10T09:41:59;97942.50;;;19.40;52.72
24962;BME280;12992;50.884;13.668;2023-04-10T09:44:33;98018.22;;;20.52;50.96
24962;BME280;12992;50.884;13.668;2023-04-10T09:47:15;98083.34;;;21.92;48.46
24962;BME280;12992;50.884;13.668;2023-04-10T09:49:48;97995.41;;;22.29;46.64
24962;BME280;12992;50.884;13.668;2023-04-10T09:52:21;97884.34;;;19.69;50.20
24962;BME280;12992;50.884;13.668;2023-04-10T09:54:47;97794.66;;;17.77;54.40
24962;BME280;12992;50.884;13.668;2023-04-10T09:57:17;97843.63;;;17.46;56.37
24962;BME280;12992;50.884;13.668;2023-04-10T09:59:47;97944.66;;;18.53;54.52
24962;BME280;12992;50.884;13.668;2023-04-10T10:02:13;97935.53;;;18.81;51.90
24962;BME280;12992;50.884;13.668;2023-04-10T10:04:41;98008.28;;;20.32;52.72
24962;BME280;12992;50.884;13.668;2023-04-10T10:07:08;98002.78;;;20.79;50.08
24962;BME280;12992;50.884;13.668;2023-04-10T10:09:34;97958.41;;;21.39;47.73
24962;BME280;12992;50.884;13.668;2023-04-10T10:12:02;97893.72;;;20.20;50.44
24962;BME280;12992;50.884;13.668;2023-04-10T10:14:27;97951.22;;;20.36;49.98
24962;BME280;12992;50.884;13.668;2023-04-10T10:16:55;97942.50;;;21.03;48.44
24962;BME280;12992;50.884;13.668;2023-04-10T10:19:31;97766.03;;;18.63;51.13
24962;BME280;12992;50.884;13.668;2023-04-10T10:21:59;97751.75;;;17.37;54.96
24962;BME280;12992;50.884;13.668;2023-04-10T10:24:26;97793.53;;;16.60;56.96
24962;BME280;12992;50.884;13.668;2023-04-10T10:26:54;97886.28;;;18.17;54.59
24962;BME280;12992;50.884;13.668;2023-04-10T10:29:22;97927.53;;;19.04;52.40
24962;BME280;12992;50.884;13.668;2023-04-10T10:31:48;97956.50;;;20.19;50.50
24962;BME280;12992;50.884;13.668;2023-04-10T10:34:14;97681.03;;;17.61;53.46
24962;BME280;12992;50.884;13.668;2023-04-10T10:36:41;97753.97;;;17.35;54.76
24962;BME280;12992;50.884;13.668;2023-04-10T10:39:22;97722.09;;;16.55;57.95
24962;BME280;12992;50.884;13.668;2023-04-10T10:41:55;97685.94;;;15.63;59.56
24962;BME280;12992;50.884;13.668;2023-04-10T10:44:46;97709.66;;;15.03;60.91
24962;BME280;12992;50.884;13.668;2023-04-10T10:47:23;97752.41;;;15.35;60.26
24962;BME280;12992;50.884;13.668;2023-04-10T10:57:53;97720.88;;;15.22;60.70
24962;BME280;12992;50.884;13.668;2023-04-10T11:00:20;97901.09;;;17.58;56.71
24962;BME280;12992;50.884;13.668;2023-04-10T11:11:04;97953.94;;;19.90;53.09
24962;BME280;12992;50.884;13.668;2023-04-10T11:13:33;97877.53;;;20.27;51.16
24962;BME280;12992;50.884;13.668;2023-04-10T11:16:00;97957.97;;;21.82;48.35
24962;BME280;12992;50.884;13.668;2023-04-10T11:21:17;97831.03;;;20.98;47.73
24962;BME280;12992;50.884;13.668;2023-04-10T11:31:38;97871.06;;;24.06;40.45
24962;BME280;12992;50.884;13.668;2023-04-10T11:34:08;97824.16;;;23.69;41.53
24962;BME280;12992;50.884;13.668;2023-04-10T11:36:39;97850.94;;;23.57;44.98
24962;BME280;12992;50.884;13.668;2023-04-10T11:39:06;97864.66;;;24.14;42.46
24962;BME280;12992;50.884;13.668;2023-04-10T11:41:41;97846.78;;;24.70;41.29
24962;BME280;12992;50.884;13.668;2023-04-10T11:44:08;97793.44;;;24.13;41.34
24962;BME280;12992;50.884;13.668;2023-04-10T11:46:40;97743.34;;;23.31;40.38
24962;BME280;12992;50.884;13.668;2023-04-10T11:49:07;97748.78;;;23.19;41.32
24962;BME280;12992;50.884;13.668;2023-04-10T11:51:36;97796.13;;;23.83;42.92
24962;BME280;12992;50.884;13.668;2023-04-10T11:54:10;97695.50;;;23.08;39.63
24962;BME280;12992;50.884;13.668;2023-04-10T11:56:55;97652.78;;;22.18;40.08
24962;BME280;12992;50.884;13.668;2023-04-10T11:59:22;97630.16;;;21.45;41.99
24962;BME280;12992;50.884;13.668;2023-04-10T12:01:49;97635.75;;;20.78;45.08
24962;BME280;12992;50.884;13.668;2023-04-10T12:04:15;97694.69;;;21.45;44.42
24962;BME280;12992;50.884;13.668;2023-04-10T12:06:50;97705.22;;;21.57;44.49
24962;BME280;12992;50.884;13.668;2023-04-10T12:09:18;97713.69;;;21.92;42.30
24962;BME280;12992;50.884;13.668;2023-04-10T12:11:51;97718.94;;;22.42;41.39
24962;BME280;12992;50.884;13.668;2023-04-10T12:14:18;97693.44;;;22.22;43.25
24962;BME280;12992;50.884;13.668;2023-04-10T12:16:44;97714.22;;;22.59;44.44
24962;BME280;12992;50.884;13.668;2023-04-10T12:19:11;97644.38;;;21.92;41.87
24962;BME280;12992;50.884;13.668;2023-04-10T12:21:37;97631.53;;;21.56;42.36
24962;BME280;12992;50.884;13.668;2023-04-10T12:24:04;97656.16;;;21.58;42.63
24962;BME280;12992;50.884;13.668;2023-04-10T12:26:29;97671.38;;;22.09;41.00
24962;BME280;12992;50.884;13.668;2023-04-10T12:28:55;97720.25;;;22.61;41.10
24962;BME280;12992;50.884;13.668;2023-04-10T12:31:29;97709.00;;;22.67;40.53
24962;BME280;12992;50.884;13.668;2023-04-10T12:33:56;97688.75;;;22.49;41.78
24962;BME280;12992;50.884;13.668;2023-04-10T12:36:27;97642.34;;;22.23;41.09
24962;BME280;12992;50.884;13.668;2023-04-10T12:38:57;97643.78;;;22.12;42.27
24962;BME280;12992;50.884;13.668;2023-04-10T12:41:33;97623.50;;;22.03;42.41
24962;BME280;12992;50.884;13.668;2023-04-10T12:44:10;97500.63;;;19.90;44.38
24962;BME280;12992;50.884;13.668;2023-04-10T12:46:36;97478.63;;;18.48;47.40
24962;BME280;12992;50.884;13.668;2023-04-10T12:49:13;97509.56;;;18.12;49.42
24962;BME280;12992;50.884;13.668;2023-04-10T12:51:49;97491.09;;;17.94;48.38
24962;BME280;12992;50.884;13.668;2023-04-10T12:56:55;97609.03;;;19.46;45.44
24962;BME280;12992;50.884;13.668;2023-04-10T12:59:21;97598.91;;;19.83;45.52
24962;BME280;12992;50.884;13.668;2023-04-10T13:01:47;97621.69;;;20.16;45.07
24962;BME280;12992;50.884;13.668;2023-04-10T13:04:12;97712.13;;;21.46;48.57
24962;BME280;12992;50.884;13.668;2023-04-10T13:06:42;97614.50;;;21.18;44.97
24962;BME280;12992;50.884;13.668;2023-04-10T13:09:08;97538.50;;;20.48;45.64
24962;BME280;12992;50.884;13.668;2023-04-10T13:11:33;97491.13;;;19.83;44.79
24962;BME280;12992;50.884;13.668;2023-04-10T13:13:58;97545.03;;;19.94;46.13
24962;BME280;12992;50.884;13.668;2023-04-10T13:16:24;97507.06;;;19.86;45.17
24962;BME280;12992;50.884;13.668;2023-04-10T13:18:49;97429.22;;;18.79;45.41
24962;BME280;12992;50.884;13.668;2023-04-10T13:21:15;97452.38;;;18.50;45.74
24962;BME280;12992;50.884;13.668;2023-04-10T13:23:43;97544.13;;;19.43;46.37
24962;BME280;12992;50.884;13.668;2023-04-10T13:26:09;97553.16;;;20.13;42.99
24962;BME280;12992;50.884;13.668;2023-04-10T13:28:34;97573.13;;;20.59;43.83
24962;BME280;12992;50.884;13.668;2023-04-10T13:31:00;97593.22;;;20.96;45.29
24962;BME280;12992;50.884;13.668;2023-04-10T13:33:25;97571.44;;;21.34;43.42
24962;BME280;12992;50.884;13.668;2023-04-10T13:35:50;97598.81;;;21.36;46.94
24962;BME280;12992;50.884;13.668;2023-04-10T13:38:16;97560.16;;;21.70;42.15
24962;BME280;12992;50.884;13.668;2023-04-10T13:40:41;97510.50;;;21.43;42.06
24962;BME280;12992;50.884;13.668;2023-04-10T13:43:06;97527.38;;;21.81;40.89
24962;BME280;12992;50.884;13.668;2023-04-10T13:45:32;97413.06;;;20.92;41.63
24962;BME280;12992;50.884;13.668;2023-04-10T13:47:58;97394.88;;;19.85;45.27